Time;durP1;ratioP1;P1;durP2;ratioP2;P2;SDS_P1;SDS_P2;PMS_P1;PMS_P2;Temp;Humidity;BMP_temperature;BMP_pressure;BME280_temperature;BME280_humidity;BME280_pressure;Samples;Min_cycle;Max_cycle;Signal;HPM_P1;HPM_P2
2022/02/23 00:00:32;;;;;;;19.53;3.80;;;;;;;;;;5042752;28;20041;-71
2022/02/23 00:02:57;;;;;;;10.13;1.70;;;;;;;;;;5041298;28;20055;-71
2022/02/23 00:05:22;;;;;;;16.70;1.90;;;;;;;;;;5042331;28;20082;-71
2022/02/23 00:07:48;;;;;;;15.40;1.90;;;;;;;;;;5045388;28;20025;-71
2022/02/23 00:10:13;;;;;;;5.13;1.47;;;;;;;;;;5046406;28;20083;-71
2022/02/23 00:12:41;;;;;;;16.33;2.93;;;;;;;;;;5044662;28;20100;-71
2022/02/23 00:15:07;;;;;;;10.97;2.10;;;;;;;;;;5045519;28;20036;-71
2022/02/23 00:17:32;;;;;;;8.53;1.67;;;;;;;;;;5044378;28;20029;-71
2022/02/23 00:19:57;;;;;;;15.53;2.23;;;;;;;;;;5043541;28;20537;-71
2022/02/23 00:22:23;;;;;;;16.37;2.40;;;;;;;;;;5045638;28;20036;-71
2022/02/23 00:24:49;;;;;;;9.47;2.00;;;;;;;;;;5049079;28;20572;-71
2022/02/23 00:27:14;;;;;;;12.67;1.53;;;;;;;;;;5044979;28;20100;-71
2022/02/23 00:29:40;;;;;;;11.97;1.53;;;;;;;;;;5045095;28;20536;-71
2022/02/23 00:32:05;;;;;;;16.97;2.97;;;;;;;;;;5045342;28;20025;-72
2022/02/23 00:34:30;;;;;;;11.63;2.00;;;;;;;;;;5045567;28;20194;-71
2022/02/23 00:36:56;;;;;;;12.17;2.77;;;;;;;;;;5046183;28;20044;-71
2022/02/23 00:39:22;;;;;;;21.23;2.17;;;;;;;;;;5045053;28;20021;-72
2022/02/23 00:41:47;;;;;;;12.03;1.90;;;;;;;;;;5050393;28;20025;-71
2022/02/23 00:44:12;;;;;;;20.10;2.73;;;;;;;;;;5041617;28;20035;-72
2022/02/23 00:46:37;;;;;;;13.17;1.93;;;;;;;;;;5048398;28;20025;-72
2022/02/23 00:49:03;;;;;;;14.07;2.30;;;;;;;;;;5047219;28;20009;-72
2022/02/23 00:51:28;;;;;;;9.80;1.70;;;;;;;;;;5048153;28;20060;-72
2022/02/23 00:53:53;;;;;;;19.77;2.10;;;;;;;;;;5047187;28;20145;-72
2022/02/23 00:56:19;;;;;;;19.60;2.73;;;;;;;;;;5047359;28;20535;-72
2022/02/23 00:58:44;;;;;;;12.30;2.07;;;;;;;;;;5047041;28;20036;-72
2022/02/23 01:01:09;;;;;;;10.97;1.60;;;;;;;;;;5049471;28;20370;-72
2022/02/23 01:03:34;;;;;;;13.10;2.87;;;;;;;;;;5046695;28;20152;-72
2022/02/23 01:06:00;;;;;;;7.87;2.07;;;;;;;;;;5049492;28;20037;-72
2022/02/23 01:08:25;;;;;;;9.07;1.77;;;;;;;;;;5049331;28;20118;-72
2022/02/23 01:10:50;;;;;;;17.47;2.27;;;;;;;;;;5049925;28;20032;-71
2022/02/23 01:13:15;;;;;;;19.33;2.93;;;;;;;;;;5049483;28;20021;-72
2022/02/23 01:15:41;;;;;;;7.87;2.00;;;;;;;;;;5050059;28;20066;-72
2022/02/23 01:18:06;;;;;;;6.63;1.77;;;;;;;;;;5045859;28;20711;-72
2022/02/23 01:20:31;;;;;;;9.13;1.73;;;;;;;;;;5049724;28;20029;-72
2022/02/23 01:22:59;;;;;;;18.23;3.73;;;;;;;;;;5045157;28;20014;-72
2022/02/23 01:25:24;;;;;;;12.60;2.53;;;;;;;;;;5042911;28;20490;-72
2022/02/23 01:27:50;;;;;;;13.20;1.93;;;;;;;;;;5046692;28;20099;-72
2022/02/23 01:30:15;;;;;;;9.67;2.47;;;;;;;;;;5043043;28;20180;-71
2022/02/23 01:32:40;;;;;;;11.57;2.57;;;;;;;;;;5048993;28;20033;-71
2022/02/23 01:35:06;;;;;;;9.57;2.10;;;;;;;;;;5049099;28;20210;-72
2022/02/23 01:37:31;;;;;;;22.97;3.37;;;;;;;;;;5047967;28;20056;-72
2022/02/23 01:39:56;;;;;;;19.20;2.63;;;;;;;;;;5043278;28;20113;-72
2022/02/23 01:42:21;;;;;;;15.17;2.07;;;;;;;;;;5048797;28;20025;-71
2022/02/23 01:44:47;;;;;;;24.60;4.03;;;;;;;;;;5048788;28;20567;-72
2022/02/23 01:47:12;;;;;;;9.73;1.67;;;;;;;;;;5048995;28;20021;-72
2022/02/23 01:49:37;;;;;;;15.20;1.93;;;;;;;;;;5048190;28;20100;-72
2022/02/23 01:52:03;;;;;;;17.90;2.50;;;;;;;;;;5047963;28;20108;-72
2022/02/23 01:54:28;;;;;;;15.00;1.80;;;;;;;;;;5046033;28;20632;-71
2022/02/23 01:56:53;;;;;;;17.47;2.87;;;;;;;;;;5048263;28;20104;-71
2022/02/23 01:59:19;;;;;;;19.80;2.10;;;;;;;;;;5045967;28;20025;-72
2022/02/23 02:01:44;;;;;;;18.83;2.40;;;;;;;;;;5048096;28;20025;-72
2022/02/23 02:04:09;;;;;;;7.40;1.90;;;;;;;;;;5045996;28;20033;-72
2022/02/23 02:06:35;;;;;;;8.17;2.43;;;;;;;;;;5048019;28;20025;-72
2022/02/23 02:09:00;;;;;;;11.77;2.20;;;;;;;;;;5047022;28;20013;-71
2022/02/23 02:11:26;;;;;;;9.00;2.20;;;;;;;;;;5048015;28;20017;-71
2022/02/23 02:13:51;;;;;;;12.30;1.83;;;;;;;;;;5046612;28;20025;-72
2022/02/23 02:16:17;;;;;;;9.43;2.10;;;;;;;;;;5048079;28;20024;-72
2022/02/23 02:18:42;;;;;;;10.07;1.80;;;;;;;;;;5046808;28;20033;-71
2022/02/23 02:21:07;;;;;;;10.53;2.33;;;;;;;;;;5047340;28;20024;-71
2022/02/23 02:23:32;;;;;;;15.77;2.57;;;;;;;;;;5047144;28;20021;-71
2022/02/23 02:25:58;;;;;;;6.50;2.27;;;;;;;;;;5047503;28;20078;-71
2022/02/23 02:28:23;;;;;;;10.40;2.30;;;;;;;;;;5047319;28;20493;-71
2022/02/23 02:30:48;;;;;;;16.20;2.43;;;;;;;;;;5044397;28;20092;-71
2022/02/23 02:33:14;;;;;;;10.00;1.80;;;;;;;;;;5046426;28;20471;-71
2022/02/23 02:35:39;;;;;;;10.07;1.80;;;;;;;;;;5046219;28;20028;-71
2022/02/23 02:38:05;;;;;;;9.43;2.17;;;;;;;;;;5046109;28;20702;-71
2022/02/23 02:40:31;;;;;;;5.33;1.50;;;;;;;;;;5047202;28;20102;-71
2022/02/23 02:42:56;;;;;;;14.97;2.23;;;;;;;;;;5042280;28;20026;-71
2022/02/23 02:45:23;;;;;;;10.50;1.93;;;;;;;;;;5047761;28;20029;-71
2022/02/23 02:47:48;;;;;;;9.03;2.27;;;;;;;;;;5044240;28;20048;-71
2022/02/23 02:50:13;;;;;;;11.83;1.70;;;;;;;;;;5046087;28;20029;-71
2022/02/23 02:52:38;;;;;;;6.27;1.37;;;;;;;;;;5045268;28;20024;-71
2022/02/23 02:55:04;;;;;;;8.83;2.07;;;;;;;;;;5046273;28;20096;-71
2022/02/23 02:57:29;;;;;;;27.37;3.30;;;;;;;;;;5045885;28;20086;-71
2022/02/23 02:59:55;;;;;;;11.70;2.03;;;;;;;;;;5046570;28;20021;-71
2022/02/23 03:02:20;;;;;;;7.63;1.87;;;;;;;;;;5044742;28;20417;-71
2022/02/23 03:04:45;;;;;;;9.23;2.47;;;;;;;;;;5046028;28;20614;-71
2022/02/23 03:07:10;;;;;;;10.57;2.20;;;;;;;;;;5046409;28;20039;-71
2022/02/23 03:09:35;;;;;;;6.60;1.67;;;;;;;;;;5045979;28;20481;-71
2022/02/23 03:12:01;;;;;;;13.53;3.43;;;;;;;;;;5045008;28;20413;-71
2022/02/23 03:14:26;;;;;;;11.77;1.87;;;;;;;;;;5037906;28;20025;-71
2022/02/23 03:16:51;;;;;;;11.13;2.00;;;;;;;;;;5046382;28;20039;-71
2022/02/23 03:19:17;;;;;;;13.60;2.07;;;;;;;;;;5045222;28;20037;-70
2022/02/23 03:21:42;;;;;;;20.07;2.40;;;;;;;;;;5044245;28;20028;-70
2022/02/23 03:24:07;;;;;;;9.37;3.17;;;;;;;;;;5040639;28;20363;-71
2022/02/23 03:26:33;;;;;;;12.50;1.93;;;;;;;;;;5046317;28;20636;-71
2022/02/23 03:28:58;;;;;;;10.93;2.57;;;;;;;;;;5043207;28;20128;-71
2022/02/23 03:31:23;;;;;;;9.53;2.60;;;;;;;;;;5046009;28;20422;-71
2022/02/23 03:33:48;;;;;;;13.07;1.83;;;;;;;;;;5034794;28;20371;-71
2022/02/23 03:36:15;;;;;;;9.57;2.37;;;;;;;;;;5046365;28;20017;-71
2022/02/23 03:38:41;;;;;;;9.00;1.40;;;;;;;;;;5042442;28;20032;-71
2022/02/23 03:41:06;;;;;;;12.40;3.40;;;;;;;;;;5045612;28;20186;-72
2022/02/23 03:43:32;;;;;;;11.53;1.87;;;;;;;;;;5045390;28;20679;-72
2022/02/23 03:45:57;;;;;;;12.43;2.93;;;;;;;;;;5046469;28;20021;-71
2022/02/23 03:48:23;;;;;;;13.50;2.10;;;;;;;;;;5045528;28;20021;-72
2022/02/23 03:50:48;;;;;;;13.13;2.70;;;;;;;;;;5046191;28;20033;-72
2022/02/23 03:53:13;;;;;;;28.10;3.93;;;;;;;;;;5040688;28;20032;-73
2022/02/23 03:55:41;;;;;;;11.87;1.60;;;;;;;;;;5034911;28;20056;-72
2022/02/23 03:58:07;;;;;;;15.17;2.73;;;;;;;;;;5045494;28;20025;-72
2022/02/23 04:00:32;;;;;;;11.17;1.80;;;;;;;;;;5045254;28;20024;-72
2022/02/23 04:02:57;;;;;;;14.00;3.47;;;;;;;;;;5043632;28;20053;-72
2022/02/23 04:05:22;;;;;;;13.53;2.50;;;;;;;;;;5044728;28;20083;-72
2022/02/23 04:07:48;;;;;;;19.23;2.73;;;;;;;;;;5043810;28;20103;-71
2022/02/23 04:10:14;;;;;;;8.40;1.80;;;;;;;;;;5045191;28;20477;-71
2022/02/23 04:12:39;;;;;;;16.77;2.43;;;;;;;;;;5045786;28;20032;-72
2022/02/23 04:15:05;;;;;;;8.13;1.83;;;;;;;;;;5045092;28;20400;-71
2022/02/23 04:17:30;;;;;;;22.17;3.30;;;;;;;;;;5045191;28;20033;-71
2022/02/23 04:19:56;;;;;;;17.30;3.07;;;;;;;;;;5037079;28;20021;-71
2022/02/23 04:22:21;;;;;;;10.47;2.17;;;;;;;;;;5045677;28;20037;-71
2022/02/23 04:24:46;;;;;;;10.63;1.93;;;;;;;;;;5039456;28;20041;-71
2022/02/23 04:27:11;;;;;;;12.33;1.97;;;;;;;;;;5045521;28;20083;-71
2022/02/23 04:29:37;;;;;;;14.03;1.70;;;;;;;;;;5036932;28;20424;-71
2022/02/23 04:32:02;;;;;;;20.10;2.00;;;;;;;;;;5042549;28;20033;-71
2022/02/23 04:34:27;;;;;;;8.50;1.80;;;;;;;;;;5043697;28;20455;-71
2022/02/23 04:36:53;;;;;;;17.50;2.63;;;;;;;;;;5045736;28;20448;-72
2022/02/23 04:39:18;;;;;;;11.60;2.70;;;;;;;;;;5040357;28;20066;-72
2022/02/23 04:41:44;;;;;;;20.43;2.93;;;;;;;;;;5045577;28;20020;-71
2022/02/23 04:44:09;;;;;;;11.97;2.17;;;;;;;;;;5040850;28;20283;-71
2022/02/23 04:46:35;;;;;;;12.00;1.70;;;;;;;;;;5045821;28;20029;-72
2022/02/23 04:49:00;;;;;;;8.33;1.87;;;;;;;;;;5042261;28;20464;-72
2022/02/23 04:51:28;;;;;;;9.27;2.27;;;;;;;;;;5045524;28;20040;-71
2022/02/23 04:53:53;;;;;;;11.13;1.90;;;;;;;;;;5045336;28;20561;-72
2022/02/23 04:56:18;;;;;;;17.53;2.60;;;;;;;;;;5045186;28;20009;-71
2022/02/23 04:58:44;;;;;;;11.67;2.50;;;;;;;;;;5044139;28;20545;-72
2022/02/23 05:01:10;;;;;;;11.80;2.63;;;;;;;;;;5044639;28;20025;-71
2022/02/23 05:03:35;;;;;;;22.80;3.23;;;;;;;;;;5040395;28;20045;-71
2022/02/23 05:06:01;;;;;;;22.57;2.87;;;;;;;;;;5045245;28;20017;-72
2022/02/23 05:08:26;;;;;;;14.33;1.80;;;;;;;;;;5036037;28;20120;-71
2022/02/23 05:10:51;;;;;;;10.70;2.07;;;;;;;;;;5041549;28;20523;-71
2022/02/23 05:13:17;;;;;;;10.50;2.37;;;;;;;;;;5041386;28;20017;-71
2022/02/23 05:15:43;;;;;;;18.87;2.87;;;;;;;;;;5043473;28;20112;-71
2022/02/23 05:18:08;;;;;;;16.43;2.37;;;;;;;;;;5040707;28;20753;-70
2022/02/23 05:20:35;;;;;;;17.90;3.03;;;;;;;;;;5044334;28;20025;-71
2022/02/23 05:23:00;;;;;;;18.77;3.07;;;;;;;;;;5043795;28;20040;-71
2022/02/23 05:25:26;;;;;;;14.67;1.57;;;;;;;;;;5045661;28;20021;-71
2022/02/23 05:27:51;;;;;;;10.73;2.40;;;;;;;;;;5045048;28;20021;-71
2022/02/23 05:30:16;;;;;;;14.87;3.07;;;;;;;;;;5043953;28;20142;-71
2022/02/23 05:32:42;;;;;;;15.80;3.13;;;;;;;;;;5046573;28;20025;-71
2022/02/23 05:35:08;;;;;;;13.33;2.80;;;;;;;;;;5040532;28;20029;-71
2022/02/23 05:37:33;;;;;;;10.23;2.40;;;;;;;;;;5041804;28;20021;-72
2022/02/23 05:39:59;;;;;;;14.67;3.20;;;;;;;;;;5047961;28;20028;-71
2022/02/23 05:42:24;;;;;;;20.57;2.67;;;;;;;;;;5048473;28;20032;-72
2022/02/23 05:44:49;;;;;;;21.53;3.20;;;;;;;;;;5037743;28;20122;-71
2022/02/23 05:47:15;;;;;;;11.77;2.23;;;;;;;;;;5048716;28;20026;-71
2022/02/23 05:49:40;;;;;;;16.17;2.90;;;;;;;;;;5037211;28;20357;-71
2022/02/23 05:52:05;;;;;;;13.50;1.80;;;;;;;;;;5047910;28;20028;-72
2022/02/23 05:54:31;;;;;;;14.90;2.63;;;;;;;;;;5044661;28;20036;-71
2022/02/23 05:56:57;;;;;;;18.50;4.17;;;;;;;;;;5047916;28;20024;-71
2022/02/23 05:59:22;;;;;;;19.73;3.77;;;;;;;;;;5047745;28;20029;-71
2022/02/23 06:01:48;;;;;;;15.30;2.27;;;;;;;;;;5046150;28;20096;-71
2022/02/23 06:04:13;;;;;;;20.13;2.60;;;;;;;;;;5042133;28;20770;-71
2022/02/23 06:06:38;;;;;;;13.97;3.37;;;;;;;;;;5048491;28;20037;-72
2022/02/23 06:09:03;;;;;;;11.87;2.60;;;;;;;;;;5041456;28;20095;-71
2022/02/23 06:11:28;;;;;;;11.87;2.80;;;;;;;;;;5048381;28;20021;-71
2022/02/23 06:13:54;;;;;;;14.83;2.40;;;;;;;;;;5045025;28;20085;-71
2022/02/23 06:16:23;;;;;;;16.57;2.97;;;;;;;;;;5046350;28;20017;-71
2022/02/23 06:18:49;;;;;;;15.77;3.53;;;;;;;;;;5039778;28;20025;-72
2022/02/23 06:21:15;;;;;;;13.40;3.03;;;;;;;;;;5045192;28;20025;-71
2022/02/23 06:23:40;;;;;;;15.43;2.63;;;;;;;;;;5048124;28;20378;-72
2022/02/23 06:26:06;;;;;;;10.13;2.03;;;;;;;;;;5051928;28;20025;-72
2022/02/23 06:28:32;;;;;;;25.10;3.77;;;;;;;;;;5048282;28;20080;-71
2022/02/23 06:30:57;;;;;;;14.73;2.70;;;;;;;;;;5046256;28;20452;-72
2022/02/23 06:33:25;;;;;;;12.83;2.60;;;;;;;;;;5047171;28;20480;-72
2022/02/23 06:35:51;;;;;;;17.57;2.43;;;;;;;;;;5046908;28;20284;-72
2022/02/23 06:38:16;;;;;;;16.80;2.77;;;;;;;;;;5044356;28;20032;-72
2022/02/23 06:40:41;;;;;;;31.10;4.30;;;;;;;;;;5044399;28;20032;-72
2022/02/23 06:43:07;;;;;;;20.20;2.40;;;;;;;;;;5041151;28;20101;-72
2022/02/23 06:45:33;;;;;;;23.83;3.13;;;;;;;;;;5046340;28;20025;-71
2022/02/23 06:47:58;;;;;;;11.43;2.53;;;;;;;;;;5041738;28;20025;-72
2022/02/23 06:50:23;;;;;;;14.30;2.27;;;;;;;;;;5045196;28;20017;-72
2022/02/23 06:52:49;;;;;;;17.47;3.40;;;;;;;;;;5042905;28;20052;-72
2022/02/23 06:55:15;;;;;;;21.30;3.87;;;;;;;;;;5047169;28;20017;-72
2022/02/23 06:57:41;;;;;;;10.20;2.50;;;;;;;;;;5046395;28;20024;-72
2022/02/23 07:00:08;;;;;;;15.07;2.93;;;;;;;;;;5046895;28;20021;-72
2022/02/23 07:02:34;;;;;;;12.70;3.23;;;;;;;;;;5045959;28;20052;-72
2022/02/23 07:04:59;;;;;;;14.10;2.87;;;;;;;;;;5045188;28;20033;-72
2022/02/23 07:07:24;;;;;;;13.57;2.40;;;;;;;;;;5047324;28;20071;-71
2022/02/23 07:09:50;;;;;;;20.57;3.50;;;;;;;;;;5038473;28;20074;-72
2022/02/23 07:12:15;;;;;;;15.27;2.80;;;;;;;;;;5048026;28;20484;-71
2022/02/23 07:14:40;;;;;;;16.20;2.80;;;;;;;;;;5040714;28;20339;-72
2022/02/23 07:17:06;;;;;;;9.73;2.23;;;;;;;;;;5047439;28;20090;-72
2022/02/23 07:19:31;;;;;;;14.03;2.27;;;;;;;;;;5046749;28;20504;-71
2022/02/23 07:21:56;;;;;;;17.93;2.97;;;;;;;;;;5047437;28;20025;-72
2022/02/23 07:24:21;;;;;;;16.03;2.77;;;;;;;;;;5046591;28;20029;-72
2022/02/23 07:26:47;;;;;;;10.20;1.73;;;;;;;;;;5046762;28;20025;-72
2022/02/23 07:29:12;;;;;;;10.63;2.43;;;;;;;;;;5046931;28;20052;-71
2022/02/23 07:31:39;;;;;;;20.40;3.90;;;;;;;;;;5047761;28;20935;-71
2022/02/23 07:34:05;;;;;;;12.47;2.03;;;;;;;;;;5036737;28;20096;-72
2022/02/23 07:36:30;;;;;;;15.17;2.93;;;;;;;;;;5034576;28;20108;-72
2022/02/23 07:38:55;;;;;;;16.37;2.20;;;;;;;;;;5041831;28;20491;-72
2022/02/23 07:41:23;;;;;;;22.23;2.77;;;;;;;;;;5046822;28;20108;-71
2022/02/23 07:43:50;;;;;;;14.33;2.37;;;;;;;;;;5046558;28;20032;-71
2022/02/23 07:46:15;;;;;;;20.17;3.40;;;;;;;;;;5046880;28;20037;-72
2022/02/23 07:48:41;;;;;;;10.73;1.67;;;;;;;;;;5045421;28;20048;-72
2022/02/23 07:51:06;;;;;;;19.40;2.13;;;;;;;;;;5046267;28;20100;-73
2022/02/23 07:53:32;;;;;;;12.83;2.10;;;;;;;;;;5039138;28;20108;-73
2022/02/23 07:55:57;;;;;;;14.83;2.60;;;;;;;;;;5041278;28;20385;-73
2022/02/23 07:58:23;;;;;;;19.00;2.60;;;;;;;;;;5038013;28;20048;-73
2022/02/23 08:00:48;;;;;;;15.47;3.90;;;;;;;;;;5039065;28;20021;-73
2022/02/23 08:03:14;;;;;;;15.40;2.00;;;;;;;;;;5040851;28;20063;-73
2022/02/23 08:05:39;;;;;;;15.63;2.30;;;;;;;;;;5045593;28;20031;-73
2022/02/23 08:08:05;;;;;;;11.93;2.27;;;;;;;;;;5041743;28;20540;-72
2022/02/23 08:10:30;;;;;;;7.33;1.80;;;;;;;;;;5046714;28;20385;-72
2022/02/23 08:12:58;;;;;;;14.63;2.93;;;;;;;;;;5041706;28;20176;-73
2022/02/23 08:20:53;;;;;;;12.47;2.10;;;;;;;;;;5025562;28;20028;-72
2022/02/23 08:23:19;;;;;;;8.30;1.40;;;;;;;;;;5032783;28;20037;-71
2022/02/23 08:25:45;;;;;;;10.07;2.03;;;;;;;;;;5044042;28;20195;-71
2022/02/23 08:28:10;;;;;;;15.43;1.80;;;;;;;;;;5037070;28;20022;-70
2022/02/23 08:30:35;;;;;;;12.97;2.30;;;;;;;;;;5041245;28;20021;-71
2022/02/23 08:33:03;;;;;;;7.50;1.77;;;;;;;;;;5032526;28;20018;-70
2022/02/23 08:35:29;;;;;;;9.33;1.80;;;;;;;;;;5041985;28;20037;-70
2022/02/23 08:37:54;;;;;;;10.90;2.33;;;;;;;;;;5038018;28;20569;-70
2022/02/23 08:40:19;;;;;;;7.10;1.63;;;;;;;;;;5028326;28;20049;-70
2022/02/23 08:42:45;;;;;;;9.27;2.13;;;;;;;;;;5038702;28;20041;-70
2022/02/23 08:45:11;;;;;;;9.37;1.70;;;;;;;;;;5040963;28;20021;-71
2022/02/23 08:47:36;;;;;;;9.50;1.37;;;;;;;;;;5040065;28;20032;-70
2022/02/23 08:50:01;;;;;;;4.77;1.30;;;;;;;;;;5041018;28;20089;-71
2022/02/23 08:52:27;;;;;;;9.67;1.67;;;;;;;;;;5041839;28;20021;-71
2022/02/23 08:54:52;;;;;;;9.40;2.83;;;;;;;;;;5040682;28;20778;-70
2022/02/23 08:57:17;;;;;;;9.57;3.00;;;;;;;;;;5040453;28;20116;-71
2022/02/23 08:59:42;;;;;;;8.93;2.57;;;;;;;;;;5041335;28;20417;-70
2022/02/23 09:02:08;;;;;;;18.83;1.70;;;;;;;;;;5040371;28;20049;-71
2022/02/23 09:04:33;;;;;;;14.57;2.23;;;;;;;;;;5036804;28;20032;-71
2022/02/23 09:06:58;;;;;;;9.90;1.53;;;;;;;;;;5045349;28;20052;-70
2022/02/23 09:09:23;;;;;;;10.80;1.87;;;;;;;;;;5034787;28;20029;-70
2022/02/23 09:11:49;;;;;;;10.50;2.23;;;;;;;;;;5045062;28;20025;-70
2022/02/23 09:14:14;;;;;;;11.83;2.73;;;;;;;;;;5045461;28;20027;-70
2022/02/23 09:16:40;;;;;;;15.63;2.30;;;;;;;;;;5046284;28;20056;-70
2022/02/23 09:19:05;;;;;;;11.70;3.00;;;;;;;;;;5039551;28;20048;-71
2022/02/23 09:21:31;;;;;;;7.30;1.93;;;;;;;;;;5048044;28;20673;-72
2022/02/23 09:23:56;;;;;;;15.30;2.77;;;;;;;;;;5041007;28;20044;-72
2022/02/23 09:26:21;;;;;;;12.00;1.93;;;;;;;;;;5048540;28;20048;-72
2022/02/23 09:28:47;;;;;;;8.57;1.97;;;;;;;;;;5041930;28;20068;-73
2022/02/23 09:31:13;;;;;;;12.17;2.27;;;;;;;;;;5049029;28;20077;-72
2022/02/23 09:33:38;;;;;;;12.93;1.97;;;;;;;;;;5048049;28;20013;-73
2022/02/23 09:36:04;;;;;;;12.63;2.20;;;;;;;;;;5049680;28;20025;-72
2022/02/23 09:38:33;;;;;;;8.93;1.23;;;;;;;;;;5049689;28;20684;-73
2022/02/23 09:40:59;;;;;;;8.47;1.80;;;;;;;;;;5045089;28;20617;-73
2022/02/23 09:43:25;;;;;;;7.77;1.80;;;;;;;;;;5046261;28;20025;-73
2022/02/23 09:45:53;;;;;;;6.73;1.83;;;;;;;;;;5048939;28;20033;-73
2022/02/23 09:48:19;;;;;;;14.67;1.50;;;;;;;;;;5048674;28;20025;-73
2022/02/23 09:50:44;;;;;;;11.73;1.90;;;;;;;;;;5047283;28;20032;-72
2022/02/23 09:53:10;;;;;;;10.83;1.60;;;;;;;;;;5048006;28;20566;-73
2022/02/23 09:55:36;;;;;;;7.40;2.13;;;;;;;;;;5045633;28;20463;-73
2022/02/23 09:58:01;;;;;;;11.27;2.33;;;;;;;;;;5048011;28;20107;-72
2022/02/23 10:00:28;;;;;;;10.03;2.80;;;;;;;;;;5047409;28;20029;-73
2022/02/23 10:02:54;;;;;;;7.83;1.60;;;;;;;;;;5048738;28;20048;-73
2022/02/23 10:05:21;;;;;;;5.80;2.10;;;;;;;;;;5048767;28;20215;-73
2022/02/23 10:07:46;;;;;;;11.57;2.10;;;;;;;;;;5046323;28;20037;-73
2022/02/23 10:10:13;;;;;;;11.60;2.60;;;;;;;;;;5040914;28;20096;-73
2022/02/23 10:12:41;;;;;;;6.33;1.43;;;;;;;;;;5046784;28;20021;-73
2022/02/23 10:15:07;;;;;;;10.40;2.17;;;;;;;;;;5047500;28;20176;-73
2022/02/23 10:17:37;;;;;;;8.83;1.60;;;;;;;;;;5047499;28;20564;-73
2022/02/23 10:20:03;;;;;;;4.30;1.37;;;;;;;;;;5048753;28;20017;-73
2022/02/23 10:22:28;;;;;;;8.47;1.40;;;;;;;;;;5047369;28;20120;-73
2022/02/23 10:24:57;;;;;;;9.97;2.93;;;;;;;;;;5047825;28;20470;-73
2022/02/23 10:27:22;;;;;;;13.67;2.43;;;;;;;;;;5048431;28;20017;-74
2022/02/23 10:29:50;;;;;;;8.80;1.63;;;;;;;;;;5041340;28;20028;-73
2022/02/23 10:32:16;;;;;;;8.03;1.57;;;;;;;;;;5047373;28;20380;-73
2022/02/23 10:34:46;;;;;;;9.30;2.67;;;;;;;;;;5043720;28;20111;-73
2022/02/23 10:37:13;;;;;;;10.80;1.57;;;;;;;;;;5047604;28;20049;-73
2022/02/23 10:39:38;;;;;;;8.13;1.87;;;;;;;;;;5045758;28;20028;-73
2022/02/23 10:42:04;;;;;;;9.40;1.80;;;;;;;;;;5046719;28;20090;-73
2022/02/23 10:44:30;;;;;;;10.17;1.67;;;;;;;;;;5045919;28;20036;-73
2022/02/23 10:46:56;;;;;;;6.23;1.60;;;;;;;;;;5046207;28;20017;-74
2022/02/23 10:49:21;;;;;;;5.67;1.27;;;;;;;;;;5044002;28;20032;-73
2022/02/23 10:51:48;;;;;;;10.30;1.93;;;;;;;;;;5047220;28;20234;-73
2022/02/23 10:54:14;;;;;;;12.60;2.10;;;;;;;;;;5046921;28;20033;-73
2022/02/23 10:56:43;;;;;;;13.17;1.90;;;;;;;;;;5046301;28;20016;-73
2022/02/23 10:59:12;;;;;;;9.20;1.50;;;;;;;;;;5045765;28;20049;-73
2022/02/23 11:01:38;;;;;;;8.43;1.40;;;;;;;;;;5033747;28;20048;-73
2022/02/23 11:04:05;;;;;;;8.67;1.53;;;;;;;;;;5045540;28;20052;-73
2022/02/23 11:06:30;;;;;;;7.13;1.70;;;;;;;;;;5046400;28;20029;-73
2022/02/23 11:08:56;;;;;;;7.57;1.77;;;;;;;;;;5036272;28;20022;-74
2022/02/23 11:11:22;;;;;;;7.27;1.40;;;;;;;;;;5037193;28;20017;-73
2022/02/23 11:13:48;;;;;;;9.30;1.63;;;;;;;;;;5041352;28;20025;-73
2022/02/23 11:16:14;;;;;;;4.33;1.60;;;;;;;;;;5045753;28;20032;-73
2022/02/23 11:18:40;;;;;;;5.37;1.30;;;;;;;;;;5044775;28;20028;-73
2022/02/23 11:21:07;;;;;;;7.20;2.00;;;;;;;;;;5045017;28;20548;-73
2022/02/23 11:23:34;;;;;;;8.27;1.77;;;;;;;;;;5044195;28;20027;-73
2022/02/23 11:26:00;;;;;;;2.77;1.30;;;;;;;;;;5045908;28;20040;-74
2022/02/23 11:28:26;;;;;;;4.37;1.00;;;;;;;;;;5039802;28;20025;-73
2022/02/23 11:30:53;;;;;;;4.10;1.23;;;;;;;;;;5045859;28;20405;-73
2022/02/23 11:33:41;;;;;;;4.97;1.00;;;;;;;;;;5040464;28;20029;-74
2022/02/23 11:36:29;;;;;;;6.67;0.93;;;;;;;;;;5008422;28;20084;-73
2022/02/23 11:38:57;;;;;;;4.30;1.20;;;;;;;;;;4963289;28;20041;-73
2022/02/23 11:41:24;;;;;;;5.47;1.00;;;;;;;;;;4962008;28;20039;-74
2022/02/23 11:43:54;;;;;;;2.17;0.80;;;;;;;;;;4963565;28;20050;-73
2022/02/23 11:46:20;;;;;;;9.40;1.70;;;;;;;;;;4947616;28;20411;-73
2022/02/23 11:48:46;;;;;;;5.80;1.30;;;;;;;;;;4955310;28;20025;-74
2022/02/23 11:51:22;;;;;;;5.97;1.43;;;;;;;;;;4958226;28;20026;-73
2022/02/23 11:53:47;;;;;;;5.90;1.07;;;;;;;;;;4960787;28;20118;-74
2022/02/23 11:56:14;;;;;;;4.63;1.00;;;;;;;;;;4978609;28;20133;-74
2022/02/23 11:58:43;;;;;;;5.97;1.10;;;;;;;;;;4947182;28;20582;-74
2022/02/23 12:01:08;;;;;;;4.93;0.97;;;;;;;;;;4956325;28;20558;-74
2022/02/23 12:03:33;;;;;;;7.43;1.93;;;;;;;;;;4954364;28;20180;-73
2022/02/23 12:06:00;;;;;;;4.47;1.20;;;;;;;;;;4963143;28;20039;-73
2022/02/23 12:08:47;;;;;;;5.07;1.23;;;;;;;;;;4966744;28;20031;-72
2022/02/23 12:11:15;;;;;;;4.23;0.77;;;;;;;;;;4965745;28;20026;-73
2022/02/23 12:13:44;;;;;;;2.37;0.80;;;;;;;;;;4994642;28;20645;-73
2022/02/23 12:16:18;;;;;;;5.60;0.90;;;;;;;;;;5034994;28;20029;-73
2022/02/23 12:18:45;;;;;;;6.00;0.97;;;;;;;;;;5044015;28;20025;-73
2022/02/23 12:21:11;;;;;;;6.47;2.00;;;;;;;;;;5044763;28;20059;-73
2022/02/23 12:23:37;;;;;;;6.17;1.33;;;;;;;;;;5044160;28;20070;-73
2022/02/23 12:26:08;;;;;;;4.77;0.63;;;;;;;;;;5043629;28;20105;-72
2022/02/23 12:28:36;;;;;;;5.10;1.00;;;;;;;;;;5043199;28;20052;-72
2022/02/23 12:31:12;;;;;;;3.77;0.93;;;;;;;;;;5042610;28;20029;-73
2022/02/23 12:33:39;;;;;;;2.87;0.60;;;;;;;;;;5034319;28;20060;-73
2022/02/23 12:36:06;;;;;;;4.50;0.90;;;;;;;;;;5045724;28;20492;-73
2022/02/23 12:38:32;;;;;;;2.27;0.67;;;;;;;;;;5049183;28;20032;-73
2022/02/23 12:40:58;;;;;;;4.67;0.90;;;;;;;;;;5049362;28;20186;-73
2022/02/23 12:43:24;;;;;;;3.20;0.87;;;;;;;;;;5048918;28;20045;-73
2022/02/23 12:45:50;;;;;;;2.67;0.60;;;;;;;;;;5048785;28;20056;-73
2022/02/23 12:48:15;;;;;;;5.37;1.00;;;;;;;;;;5046716;28;20024;-73
2022/02/23 12:50:41;;;;;;;3.57;0.60;;;;;;;;;;5046726;28;20013;-73
2022/02/23 12:53:06;;;;;;;3.00;0.70;;;;;;;;;;5042666;28;20689;-73
2022/02/23 12:55:32;;;;;;;0.80;0.47;;;;;;;;;;5046544;28;20619;-72
2022/02/23 12:57:57;;;;;;;3.40;0.50;;;;;;;;;;5043535;28;20555;-73
2022/02/23 13:00:23;;;;;;;5.13;0.63;;;;;;;;;;5045509;28;20020;-73
2022/02/23 13:02:48;;;;;;;1.67;0.93;;;;;;;;;;5048757;28;20048;-73
2022/02/23 13:05:17;;;;;;;1.13;0.63;;;;;;;;;;5042224;28;20025;-72
2022/02/23 13:07:42;;;;;;;3.23;0.70;;;;;;;;;;5048180;28;20059;-73
2022/02/23 13:10:08;;;;;;;2.30;0.83;;;;;;;;;;5046791;28;20063;-72
2022/02/23 13:12:34;;;;;;;1.87;0.60;;;;;;;;;;5047401;28;20021;-73
2022/02/23 13:14:59;;;;;;;3.07;0.70;;;;;;;;;;5034819;28;20024;-72
2022/02/23 13:17:25;;;;;;;1.80;0.80;;;;;;;;;;5048676;28;20025;-72
2022/02/23 13:19:50;;;;;;;2.67;0.60;;;;;;;;;;5047891;28;20021;-72
2022/02/23 13:22:16;;;;;;;2.83;0.60;;;;;;;;;;5046992;28;20033;-71
2022/02/23 13:24:42;;;;;;;2.20;0.90;;;;;;;;;;5045395;28;20594;-71
2022/02/23 13:27:08;;;;;;;3.60;0.70;;;;;;;;;;5047493;28;20432;-72
2022/02/23 13:29:35;;;;;;;2.40;0.60;;;;;;;;;;5046301;28;20017;-74
2022/02/23 13:32:12;;;;;;;2.10;0.53;;;;;;;;;;5046626;28;20032;-71
2022/02/23 13:34:37;;;;;;;3.20;0.73;;;;;;;;;;5035539;28;20021;-74
2022/02/23 13:37:02;;;;;;;2.63;0.52;;;;;;;;;;5047152;28;20025;-71
2022/02/23 13:39:29;;;;;;;4.60;0.82;;;;;;;;;;5035329;28;20059;-72
2022/02/23 13:42:06;;;;;;;1.52;0.40;;;;;;;;;;5042577;28;20021;-72
2022/02/23 13:44:38;;;;;;;4.33;0.80;;;;;;;;;;5036419;28;20078;-72
2022/02/23 13:47:11;;;;;;;2.77;0.57;;;;;;;;;;5048224;28;20020;-75
2022/02/23 13:49:55;;;;;;;3.03;0.80;;;;;;;;;;5042270;28;20089;-73
2022/02/23 13:52:20;;;;;;;3.03;0.60;;;;;;;;;;5043907;28;20036;-73
2022/02/23 13:55:15;;;;;;;6.63;1.43;;;;;;;;;;5047452;28;20037;-73
2022/02/23 13:57:40;;;;;;;5.10;0.60;;;;;;;;;;4992143;28;20101;-73
2022/02/23 14:00:09;;;;;;;3.40;0.60;;;;;;;;;;4988438;28;20421;-73
2022/02/23 14:02:35;;;;;;;1.37;0.60;;;;;;;;;;4992373;28;20256;-73
2022/02/23 14:05:05;;;;;;;4.97;0.93;;;;;;;;;;4992076;28;20117;-73
2022/02/23 14:07:30;;;;;;;4.60;1.17;;;;;;;;;;5004200;28;20036;-73
2022/02/23 14:09:55;;;;;;;3.03;0.70;;;;;;;;;;4991548;28;20494;-73
2022/02/23 14:12:20;;;;;;;2.70;0.70;;;;;;;;;;5003326;28;20026;-73
2022/02/23 14:14:46;;;;;;;5.67;0.90;;;;;;;;;;4996442;28;20517;-73
2022/02/23 14:17:18;;;;;;;4.27;0.87;;;;;;;;;;4994520;28;20032;-73
2022/02/23 14:19:44;;;;;;;3.00;0.90;;;;;;;;;;5005560;28;20113;-74
2022/02/23 14:22:15;;;;;;;1.87;0.70;;;;;;;;;;5004972;28;20038;-74
2022/02/23 14:24:42;;;;;;;4.23;1.00;;;;;;;;;;4990771;28;20021;-73
2022/02/23 14:27:10;;;;;;;5.07;0.80;;;;;;;;;;5005493;28;20137;-74
2022/02/23 14:29:36;;;;;;;3.70;0.60;;;;;;;;;;4988527;28;20640;-74
2022/02/23 14:32:18;;;;;;;2.60;0.70;;;;;;;;;;5006367;28;20030;-75
2022/02/23 14:34:48;;;;;;;3.30;0.85;;;;;;;;;;5033689;28;20602;-75